Time;durP1;ratioP1;P1;durP2;ratioP2;P2;SDS_P1;SDS_P2;PMS_P1;PMS_P2;Temp;Humidity;BMP_temperature;BMP_pressure;BME280_temperature;BME280_humidity;BME280_pressure;Samples;Min_cycle;Max_cycle;Signal;HPM_P1;HPM_P2
2021/02/03 00:06:54;;;;;;;17.5;12.6;;;;;;;3.55;87.32422;97586.28;;;;
2021/02/03 00:16:52;;;;;;;17.2;15.4;;;;;;;3.39;87.81152;97563.59;;;;
2021/02/03 00:26:50;;;;;;;14.3;11.7;;;;;;;3.43;88.1875;97578.73;;;;
2021/02/03 00:36:48;;;;;;;14.2;10.1;;;;;;;3.44;87.80078;97568.84;;;;
2021/02/03 00:46:46;;;;;;;15.1;11.1;;;;;;;3.42;88.22852;97579.8;;;;
2021/02/03 00:56:44;;;;;;;12.5;9.1;;;;;;;3.36;88.45898;97580.15;;;;
2021/02/03 01:07:01;;;;;;;18.2;11.6;;;;;;;3.37;88.2168;97587.84;;;;
2021/02/03 01:16:46;;;;;;;19.8;11.6;;;;;;;3.57;87.57129;97592.14;;;;
2021/02/03 01:26:50;;;;;;;13;9.5;;;;;;;4.04;85.60645;97586.67;;;;
2021/02/03 01:36:37;;;;;;;16.9;11.4;;;;;;;4.31;84.65039;97604.64;;;;
2021/02/03 01:46:35;;;;;;;14.6;8.9;;;;;;;4.5;83.05762;97589.41;;;;
2021/02/03 01:56:34;;;;;;;11.8;8;;;;;;;4.68;82.24707;97598.45;;;;
2021/02/03 02:06:32;;;;;;;8.6;6.2;;;;;;;4.8;81.31348;97597.97;;;;
2021/02/03 02:16:30;;;;;;;6.3;3.9;;;;;;;4.99;80.01367;97593.36;;;;
2021/02/03 02:26:29;;;;;;;7.2;3.8;;;;;;;5.08;78.41797;97608.4;;;;
2021/02/03 02:36:27;;;;;;;8.7;5.3;;;;;;;5.01;78.52734;97599.98;;;;
2021/02/03 02:46:25;;;;;;;7.3;5.2;;;;;;;4.92;78.74512;97601.77;;;;
2021/02/03 02:56:24;;;;;;;10.6;5.7;;;;;;;4.83;78.62695;97597.38;;;;
2021/02/03 03:06:22;;;;;;;8.5;4.4;;;;;;;4.71;78.92676;97605.08;;;;
2021/02/03 03:16:20;;;;;;;7.1;5.3;;;;;;;4.68;79.17969;97611.8;;;;
2021/02/03 03:26:18;;;;;;;11.2;6;;;;;;;4.64;79.47168;97615.34;;;;
2021/02/03 03:36:16;;;;;;;8.2;5.3;;;;;;;4.51;79.91504;97619.56;;;;
2021/02/03 03:46:15;;;;;;;10;4.9;;;;;;;4.45;80.32617;97618.03;;;;
2021/02/03 03:56:13;;;;;;;6.6;5.5;;;;;;;4.38;80.55664;97630.95;;;;
2021/02/03 04:06:11;;;;;;;159.3;131.2;;;;;;;4.23;80.85059;97642.66;;;;
2021/02/03 04:16:09;;;;;;;17.7;12.1;;;;;;;3.96;81.39941;97631.83;;;;
2021/02/03 04:26:08;;;;;;;22.1;19.4;;;;;;;3.71;82.22852;97640.98;;;;
2021/02/03 04:36:06;;;;;;;23;15;;;;;;;3.66;82.90527;97650.89;;;;
2021/02/03 04:46:04;;;;;;;26.5;23.1;;;;;;;3.55;83.39551;97659.01;;;;
2021/02/03 04:56:02;;;;;;;27;22.6;;;;;;;3.5;83.93945;97667.08;;;;
2021/02/03 05:06:00;;;;;;;41.2;36.9;;;;;;;3.41;84.5752;97687.4;;;;
2021/02/03 05:15:59;;;;;;;47.7;37.4;;;;;;;3.2;85.76074;97687.88;;;;
2021/02/03 05:26:01;;;;;;;26.9;22.2;;;;;;;3.14;85.86133;97705.78;;;;
2021/02/03 05:35:55;;;;;;;26.2;21.3;;;;;;;2.86;86.91992;97703.91;;;;
2021/02/03 05:46:19;;;;;;;23.9;19.8;;;;;;;2.75;87.01953;97735.12;;;;
2021/02/03 05:55:51;;;;;;;27.2;21.6;;;;;;;2.64;87.77051;97738.92;;;;
2021/02/03 06:06:12;;;;;;;30;23.6;;;;;;;2.68;87.51172;97733.84;;;;
2021/02/03 06:15:52;;;;;;;32.4;25.1;;;;;;;2.69;87.87793;97751.4;;;;
2021/02/03 06:26:17;;;;;;;32.2;26.6;;;;;;;2.5;87.65332;97754.7;;;;
2021/02/03 06:36:05;;;;;;;35.4;26.4;;;;;;;2.4;88.67969;97753.97;;;;
2021/02/03 06:45:52;;;;;;;30.6;27.6;;;;;;;2.71;88.01563;97750.05;;;;
2021/02/03 06:55:55;;;;;;;36;29;;;;;;;2.9;87.08203;97720.91;;;;
2021/02/03 07:06:07;;;;;;;36.4;29.6;;;;;;;3.01;87.41699;97736.52;;;;
2021/02/03 07:16:04;;;;;;;31.2;26;;;;;;;3.21;86.3252;97742.73;;;;
2021/02/03 07:26:08;;;;;;;34.6;27.7;;;;;;;3.14;86.22559;97753.7;;;;
2021/02/03 07:35:31;;;;;;;48.4;43.4;;;;;;;3.52;86.64258;97781.31;;;;
2021/02/03 07:45:29;;;;;;;64.9;48.9;;;;;;;4.08;85.47168;97778.84;;;;
2021/02/03 07:55:28;;;;;;;55.8;49.9;;;;;;;4.46;84.58105;97785.03;;;;
2021/02/03 08:05:25;;;;;;;69.4;48.4;;;;;;;4.8;84.40332;97758.13;;;;
2021/02/03 08:15:23;;;;;;;61.4;49.1;;;;;;;4.94;83.08398;97774.99;;;;
2021/02/03 08:25:21;;;;;;;64.4;50.9;;;;;;;5.16;82.29492;97780.53;;;;
2021/02/03 08:35:20;;;;;;;64.5;45.8;;;;;;;6.07;80.42676;97792.3;;;;
2021/02/03 08:45:18;;;;;;;59.2;46.9;;;;;;;6.21;78.47754;97809.15;;;;
2021/02/03 08:55:16;;;;;;;25.9;19.6;;;;;;;6.59;78.05566;97805.11;;;;
2021/02/03 09:05:15;;;;;;;7.1;4.5;;;;;;;7.12;75.84277;97806.36;;;;
2021/02/03 09:15:13;;;;;;;5.9;3.5;;;;;;;7.39;74.66992;97790.95;;;;
2021/02/03 09:25:13;;;;;;;6.6;3.5;;;;;;;7.75;73.90137;97780.12;;;;
2021/02/03 09:35:21;;;;;;;4.9;3.2;;;;;;;7.85;72.95313;97774.48;;;;
2021/02/03 09:45:09;;;;;;;7.3;2.7;;;;;;;7.87;73.29395;97783.03;;;;
2021/02/03 09:55:12;;;;;;;4.5;2.7;;;;;;;7.96;72.70117;97804.52;;;;
2021/02/03 10:05:07;;;;;;;6;2.6;;;;;;;8.06;72.73047;97796.19;;;;
2021/02/03 10:15:09;;;;;;;7;2.7;;;;;;;8.1;72.35645;97749.64;;;;
2021/02/03 10:25:13;;;;;;;7;3.5;;;;;;;8.26;72.2373;97741.93;;;;
2021/02/03 10:35:03;;;;;;;12.3;4.3;;;;;;;8.41;71.73242;97736.16;;;;
2021/02/03 10:45:02;;;;;;;6.1;3.9;;;;;;;8.58;71.77344;97736.17;;;;
2021/02/03 10:55:01;;;;;;;4.7;3.4;;;;;;;8.44;71.46875;97743.58;;;;
2021/02/03 11:05:01;;;;;;;7.7;4.5;;;;;;;9.12;70.47656;97742.03;;;;
2021/02/03 11:15:02;;;;;;;6.1;3.7;;;;;;;9.45;70.38281;97732.3;;;;
2021/02/03 11:25:02;;;;;;;6.6;4.2;;;;;;;10.75;66.9375;97725.17;;;;
2021/02/03 11:34:56;;;;;;;5;2.4;;;;;;;10.71;66.08301;97708.08;;;;
2021/02/03 11:45:06;;;;;;;5.7;3;;;;;;;10.08;67.25293;97709.1;;;;
2021/02/03 11:54:53;;;;;;;7.9;3.4;;;;;;;10.04;67.3252;97700.09;;;;
2021/02/03 12:04:52;;;;;;;4.9;2.5;;;;;;;9.76;68.80664;97685.5;;;;
2021/02/03 12:15:16;;;;;;;5.3;2.5;;;;;;;10.43;67.30664;97650.45;;;;
2021/02/03 12:25:12;;;;;;;6.2;2.8;;;;;;;10.74;66.37012;97642.73;;;;
2021/02/03 12:35:00;;;;;;;7.3;3.9;;;;;;;11.36;64.58105;97604;;;;
2021/02/03 12:44:53;;;;;;;4.9;2.6;;;;;;;11.51;64.21777;97573.67;;;;
2021/02/03 12:55:13;;;;;;;6.9;3.7;;;;;;;11.22;64.17383;97592.75;;;;
2021/02/03 13:05:01;;;;;;;6;3.1;;;;;;;10.81;64.47754;97593.68;;;;
2021/02/03 13:14:45;;;;;;;6.6;3.3;;;;;;;10.85;65.11719;97584.61;;;;
2021/02/03 13:24:58;;;;;;;8.8;5.9;;;;;;;10.62;65.34375;97569.16;;;;
2021/02/03 13:35:01;;;;;;;7.3;5.6;;;;;;;10.45;65.73633;97581.66;;;;
2021/02/03 13:44:49;;;;;;;6.6;4.1;;;;;;;10.43;66.80957;97575.03;;;;
2021/02/03 13:54:46;;;;;;;6.7;3.4;;;;;;;10.27;67.12402;97557.91;;;;
2021/02/03 14:04:56;;;;;;;7;4.4;;;;;;;9.91;68.24316;97567.34;;;;
2021/02/03 14:14:57;;;;;;;8.5;5.8;;;;;;;9.7;68.79688;97560.36;;;;
2021/02/03 14:24:59;;;;;;;18.4;13.7;;;;;;;9.55;69.05664;97559.8;;;;
2021/02/03 14:35:01;;;;;;;30.1;22.1;;;;;;;9.34;69.37207;97550.11;;;;
2021/02/03 14:44:46;;;;;;;13.7;10.4;;;;;;;9.03;70.97949;97540.45;;;;
2021/02/03 14:54:38;;;;;;;17.8;11;;;;;;;8.74;72.10156;97537.73;;;;
2021/02/03 15:04:43;;;;;;;19.2;15;;;;;;;8.31;72.68262;97532.44;;;;
2021/02/03 15:14:32;;;;;;;26.2;18.3;;;;;;;8.07;73.18262;97522.18;;;;
2021/02/03 15:24:31;;;;;;;27.1;18.4;;;;;;;7.78;73.24609;97503.23;;;;
2021/02/03 15:34:29;;;;;;;21.1;18.9;;;;;;;7.42;74.36133;97483.98;;;;
2021/02/03 15:44:28;;;;;;;21.9;17.1;;;;;;;6.86;75.86523;97500.85;;;;
2021/02/03 15:54:26;;;;;;;32.1;25.6;;;;;;;6.16;74.73926;97504.27;;;;
2021/02/03 16:04:25;;;;;;;20.1;18;;;;;;;5.73;77.00684;97495.89;;;;
2021/02/03 16:14:23;;;;;;;36.2;32.4;;;;;;;5.63;79.42969;97487.31;;;;
2021/02/03 16:24:22;;;;;;;30.4;24.3;;;;;;;5.84;80.79688;97465.16;;;;
2021/02/03 16:34:20;;;;;;;29.9;21.4;;;;;;;6.09;80.73047;97450.41;;;;
2021/02/03 16:44:19;;;;;;;11.8;8.5;;;;;;;6.64;79.91797;97426.73;;;;
2021/02/03 16:54:17;;;;;;;27.5;20.5;;;;;;;6.99;78.84375;97415.03;;;;
2021/02/03 17:04:16;;;;;;;23.7;15.5;;;;;;;7.26;78.0957;97399.76;;;;
2021/02/03 17:14:14;;;;;;;25.2;22.5;;;;;;;7.38;78.25293;97395.37;;;;
2021/02/03 17:24:13;;;;;;;48.5;40;;;;;;;7.4;79.39746;97390.47;;;;
2021/02/03 17:34:12;;;;;;;18.4;13.9;;;;;;;7.22;81.59082;97374.72;;;;
2021/02/03 17:44:10;;;;;;;26.8;21.5;;;;;;;7.1;82.23926;97369.97;;;;
2021/02/03 17:54:09;;;;;;;31.1;23.3;;;;;;;6.97;85.72168;97326.17;;;;
2021/02/03 18:04:07;;;;;;;37.2;30.6;;;;;;;6.96;86.12012;97321.91;;;;
2021/02/03 18:14:06;;;;;;;27.7;22.7;;;;;;;7.02;87.4707;97315.28;;;;
2021/02/03 18:24:05;;;;;;;29.3;21.6;;;;;;;6.96;88.65137;97313.88;;;;
2021/02/03 18:34:03;;;;;;;22.4;16.1;;;;;;;7.04;88.34277;97298.91;;;;
2021/02/03 18:44:06;;;;;;;34.8;26.4;;;;;;;7.02;88.18262;97306.45;;;;
2021/02/03 18:54:01;;;;;;;29.7;21.5;;;;;;;6.93;87.83203;97333.25;;;;
2021/02/03 19:03:59;;;;;;;21.7;14.5;;;;;;;6.83;87.38672;97333.56;;;;
2021/02/03 19:13:58;;;;;;;18.3;13.1;;;;;;;6.84;86.89844;97326.29;;;;
2021/02/03 19:23:56;;;;;;;18.3;14.3;;;;;;;6.64;87.62793;97330.36;;;;
2021/02/03 19:33:56;;;;;;;93.9;75.9;;;;;;;6.41;86.99023;97340.4;;;;
2021/02/03 19:43:53;;;;;;;99.7;82.5;;;;;;;5.98;88.12891;97344.78;;;;
2021/02/03 19:53:52;;;;;;;69.3;60.2;;;;;;;5.88;89.46484;97337.03;;;;
2021/02/03 20:03:50;;;;;;;93;79.4;;;;;;;5.81;89.07227;97364.17;;;;
2021/02/03 20:13:49;;;;;;;83.3;65.7;;;;;;;5.76;90.35254;97364.3;;;;
2021/02/03 20:23:47;;;;;;;55.4;44.3;;;;;;;5.69;90.4043;97366.63;;;;
2021/02/03 20:33:50;;;;;;;58.7;48.6;;;;;;;5.76;91.07324;97360.85;;;;
2021/02/03 20:43:45;;;;;;;72.3;58.7;;;;;;;5.73;91.2002;97330.16;;;;
2021/02/03 20:53:43;;;;;;;62.5;42.9;;;;;;;5.75;90.57129;97287.09;;;;
2021/02/03 21:03:44;;;;;;;79.9;59.4;;;;;;;5.79;89.84668;97264;;;;
2021/02/03 21:13:39;;;;;;;60.3;45.1;;;;;;;5.71;90.41699;97243.36;;;;
2021/02/03 21:23:51;;;;;;;46.8;36.5;;;;;;;5.66;89.17676;97225.56;;;;
2021/02/03 21:33:42;;;;;;;37.1;23.5;;;;;;;5.67;88.82031;97237.84;;;;
2021/02/03 21:43:43;;;;;;;28.5;21.6;;;;;;;5.69;88.71484;97246.36;;;;
2021/02/03 21:53:32;;;;;;;27.4;20.3;;;;;;;5.77;87.76465;97226.87;;;;
2021/02/03 22:03:31;;;;;;;19.2;14.4;;;;;;;5.86;86.89258;97217.04;;;;
2021/02/03 22:13:30;;;;;;;15.3;10.6;;;;;;;6.05;86.27441;97196.16;;;;
2021/02/03 22:23:27;;;;;;;15.5;9.6;;;;;;;6.24;85.68652;97192.41;;;;
2021/02/03 22:33:26;;;;;;;9.3;4.4;;;;;;;6.55;84.94727;97201.89;;;;
2021/02/03 22:43:24;;;;;;;6.6;4.3;;;;;;;7.01;83.04785;97213.83;;;;
2021/02/03 22:53:23;;;;;;;7.3;5.1;;;;;;;7.08;81.65527;97201.5;;;;
2021/02/03 23:03:21;;;;;;;9;4.2;;;;;;;7.11;81.03418;97202.78;;;;
2021/02/03 23:13:20;;;;;;;7.2;4.9;;;;;;;7.15;80.8623;97201.02;;;;
2021/02/03 23:23:18;;;;;;;8.3;3.6;;;;;;;7.26;80.2334;97201.46;;;;
2021/02/03 23:33:17;;;;;;;9.2;4.8;;;;;;;7.29;80.09473;97206.21;;;;
2021/02/03 23:43:15;;;;;;;9.4;5.2;;;;;;;7.27;79.87695;97219.13;;;;
2021/02/03 23:53:14;;;;;;;6.6;3.1;;;;;;;7.25;79.3252;97199.91;;;;
